createdAt,value
2023-01-01T00:00:12.431Z,14.3
2023-01-01T00:03:12.416Z,14.3
2023-01-01T00:06:12.211Z,14.4
2023-01-01T00:09:12.202Z,14.3
2023-01-01T00:12:12.109Z,14.3
2023-01-01T00:15:12.182Z,14.4
2023-01-01T00:18:12.145Z,14.5
2023-01-01T00:21:12.254Z,14.6
2023-01-01T00:24:12.248Z,14.7
2023-01-01T00:27:12.106Z,14.9
2023-01-01T00:30:12.431Z,15
2023-01-01T00:33:13.520Z,15
2023-01-01T00:36:12.271Z,15.1
2023-01-01T00:39:12.134Z,15.1
2023-01-01T00:42:12.093Z,15.1
2023-01-01T00:45:21.279Z,15.1
2023-01-01T00:48:12.166Z,15.1
2023-01-01T00:51:12.152Z,15.3
2023-01-01T00:54:12.302Z,15.1
2023-01-01T00:57:12.085Z,15.1
2023-01-01T01:00:12.486Z,15.1
2023-01-01T01:03:13.008Z,15
2023-01-01T01:06:13.087Z,15
2023-01-01T01:09:12.258Z,14.9
2023-01-01T01:12:30.288Z,14.9
2023-01-01T01:15:12.504Z,15
2023-01-01T01:18:12.126Z,15
2023-01-01T01:21:12.294Z,15
2023-01-01T01:24:12.222Z,14.9
2023-01-01T01:27:12.142Z,14.7
2023-01-01T01:30:15.019Z,14.7
2023-01-01T01:33:12.779Z,14.7
2023-01-01T01:36:12.158Z,14.7
2023-01-01T01:39:12.876Z,14.7
2023-01-01T01:42:12.175Z,14.7
2023-01-01T01:45:12.949Z,14.7
2023-01-01T01:48:12.198Z,14.9
2023-01-01T01:51:12.268Z,14.9
2023-01-01T01:54:13.956Z,14.9
2023-01-01T01:57:12.185Z,14.9
2023-01-01T02:00:23.191Z,14.7
2023-01-01T02:03:13.265Z,14.6
2023-01-01T02:06:12.117Z,14.6
2023-01-01T02:09:12.181Z,14.5
2023-01-01T02:12:12.311Z,14.5
2023-01-01T02:15:12.179Z,14.5
2023-01-01T02:18:12.313Z,14.5
2023-01-01T02:21:12.255Z,14.5
2023-01-01T02:24:12.283Z,14.5
2023-01-01T02:27:12.332Z,14.5
2023-01-01T02:30:12.436Z,14.5
2023-01-01T02:33:12.182Z,14.4
2023-01-01T02:36:16.157Z,14.4
2023-01-01T02:39:12.154Z,14.4
2023-01-01T02:42:12.197Z,14.4
2023-01-01T02:45:12.357Z,14.4
2023-01-01T02:48:12.573Z,14.5
2023-01-01T02:51:12.233Z,14.5
2023-01-01T02:54:12.119Z,14.6
2023-01-01T02:57:13.591Z,14.7
2023-01-01T03:00:12.228Z,14.7
2023-01-01T03:03:13.209Z,14.6
2023-01-01T03:06:12.157Z,14.6
2023-01-01T03:09:12.218Z,14.5
2023-01-01T03:12:12.173Z,14.5
2023-01-01T03:15:12.248Z,14.4
2023-01-01T03:18:12.373Z,14.4
2023-01-01T03:24:12.116Z,14.4
2023-01-01T03:27:12.097Z,14.4
2023-01-01T03:30:12.196Z,14.3
2023-01-01T03:33:12.573Z,14.4
2023-01-01T03:36:12.118Z,14.4
2023-01-01T03:39:12.027Z,14.4
2023-01-01T03:42:12.141Z,14.4
2023-01-01T03:45:12.100Z,14.5
2023-01-01T03:48:12.141Z,14.4
2023-01-01T03:51:12.227Z,14.4
2023-01-01T03:54:12.129Z,14.3
2023-01-01T03:57:12.080Z,14.3
2023-01-01T04:00:12.204Z,14.3
2023-01-01T04:03:12.596Z,14.1
2023-01-01T04:06:12.152Z,14.1
2023-01-01T04:09:12.168Z,14.1
2023-01-01T04:12:12.091Z,14
2023-01-01T04:15:12.155Z,14
2023-01-01T04:18:12.154Z,13.9
2023-01-01T04:21:12.133Z,13.9
2023-01-01T04:24:12.132Z,13.9
2023-01-01T04:27:12.755Z,13.9
2023-01-01T04:30:12.249Z,13.9
2023-01-01T04:33:12.045Z,13.8
2023-01-01T04:36:12.119Z,13.8
2023-01-01T04:39:12.110Z,13.6
2023-01-01T04:42:12.215Z,13.6
2023-01-01T04:45:12.346Z,13.6
2023-01-01T04:48:12.150Z,13.6
2023-01-01T04:51:12.055Z,13.6
2023-01-01T04:54:12.267Z,13.6
2023-01-01T04:57:12.018Z,13.6
2023-01-01T05:00:12.442Z,13.5
2023-01-01T05:03:12.436Z,13.5
2023-01-01T05:06:12.181Z,13.5
2023-01-01T05:09:12.196Z,13.5
2023-01-01T05:12:12.282Z,13.5
2023-01-01T05:15:12.180Z,13.5
2023-01-01T05:18:12.101Z,13.5
2023-01-01T05:21:12.142Z,13.5
2023-01-01T05:24:12.171Z,13.5
2023-01-01T05:27:12.189Z,13.5
2023-01-01T05:30:12.204Z,13.4
2023-01-01T05:33:12.088Z,13.3
2023-01-01T05:36:12.268Z,13.3
2023-01-01T05:39:12.432Z,13.4
2023-01-01T05:42:12.117Z,13.5
2023-01-01T05:45:12.444Z,13.6
2023-01-01T05:48:12.178Z,13.8
2023-01-01T05:51:12.129Z,13.9
2023-01-01T05:57:12.301Z,14.1
2023-01-01T06:00:12.131Z,14.1
2023-01-01T06:03:12.145Z,14.1
2023-01-01T06:06:12.158Z,14.1
2023-01-01T06:09:12.239Z,14.1
2023-01-01T06:12:12.197Z,14.1
2023-01-01T06:15:12.063Z,14.3
2023-01-01T06:18:12.190Z,14.3
2023-01-01T06:21:12.133Z,14.3
2023-01-01T06:24:12.371Z,14.3
2023-01-01T06:27:12.259Z,14.4
2023-01-01T06:30:12.496Z,14.4
2023-01-01T06:33:12.172Z,14.3
2023-01-01T06:36:12.103Z,14.3
2023-01-01T06:39:12.121Z,14.3
2023-01-01T06:42:12.277Z,14.3
2023-01-01T06:45:12.222Z,14.3
2023-01-01T06:48:12.083Z,14.1
2023-01-01T06:51:12.154Z,14.3
2023-01-01T06:54:12.226Z,14.3
2023-01-01T06:57:12.214Z,14.3
2023-01-01T07:00:12.351Z,14.3
2023-01-01T07:03:13.419Z,14.3
2023-01-01T07:06:12.119Z,14.3
2023-01-01T07:09:12.307Z,14.3
2023-01-01T07:12:12.142Z,14.3
2023-01-01T07:15:12.328Z,14.3
2023-01-01T07:18:12.144Z,14.3
2023-01-01T07:21:12.120Z,14.1
2023-01-01T07:24:12.310Z,14.3
2023-01-01T07:27:12.150Z,14.1
2023-01-01T07:30:12.399Z,14.1
2023-01-01T07:33:12.194Z,14.3
2023-01-01T07:36:12.221Z,14.3
2023-01-01T07:39:12.418Z,14.3
2023-01-01T07:42:21.829Z,14.3
2023-01-01T07:45:12.297Z,14.3
2023-01-01T07:48:12.414Z,14.3
2023-01-01T07:51:12.202Z,14.4
2023-01-01T07:54:18.716Z,14.4
2023-01-01T07:57:12.144Z,14.5
2023-01-01T08:00:12.386Z,14.5
2023-01-01T08:03:12.742Z,14.5
2023-01-01T08:06:12.172Z,14.5
2023-01-01T08:09:12.104Z,14.6
2023-01-01T08:12:12.177Z,14.6
2023-01-01T08:15:12.237Z,14.7
2023-01-01T08:18:12.322Z,14.7
2023-01-01T08:21:12.270Z,14.7
2023-01-01T08:24:12.260Z,14.7
2023-01-01T08:27:12.121Z,14.9
2023-01-01T08:30:12.457Z,15
2023-01-01T08:33:12.186Z,15.1
2023-01-01T08:36:12.176Z,15.3
2023-01-01T08:39:12.256Z,15.3
2023-01-01T08:42:19.361Z,15.4
2023-01-01T08:45:12.490Z,15.4
2023-01-01T08:48:12.114Z,15.6
2023-01-01T08:51:12.344Z,15.9
2023-01-01T08:54:12.205Z,16
2023-01-01T08:57:12.219Z,16.1
2023-01-01T09:00:12.509Z,16.1
2023-01-01T09:03:13.283Z,16
2023-01-01T09:06:12.238Z,16
2023-01-01T09:09:12.348Z,16
2023-01-01T09:12:12.264Z,16
2023-01-01T09:15:12.271Z,16.1
2023-01-01T09:18:12.223Z,16.1
2023-01-01T09:21:12.128Z,16.3
2023-01-01T09:24:12.171Z,16.1
2023-01-01T09:27:12.204Z,16
2023-01-01T09:30:12.495Z,15.9
2023-01-01T09:33:12.138Z,15.9
2023-01-01T09:36:12.082Z,16
2023-01-01T09:39:12.324Z,16.1
2023-01-01T09:42:12.168Z,16.4
2023-01-01T09:45:12.163Z,16.5
2023-01-01T09:48:12.146Z,16.6
2023-01-01T09:51:12.158Z,16.9
2023-01-01T09:54:12.295Z,17.1
2023-01-01T09:57:20.177Z,17.2
2023-01-01T10:00:12.457Z,17.5
2023-01-01T10:03:12.272Z,17.9
2023-01-01T10:06:12.177Z,18.1
2023-01-01T10:09:12.702Z,18.3
2023-01-01T10:12:12.291Z,18.4
2023-01-01T10:15:12.566Z,18.5
2023-01-01T10:18:12.162Z,18.5
2023-01-01T10:21:12.129Z,18.6
2023-01-01T10:24:12.262Z,18.8
2023-01-01T10:27:12.172Z,18.9
2023-01-01T10:30:16.335Z,18.9
2023-01-01T10:33:12.348Z,19
2023-01-01T10:36:12.167Z,19.1
2023-01-01T10:39:12.098Z,19.4
2023-01-01T10:42:12.318Z,19.9
2023-01-01T10:45:12.260Z,20.3
2023-01-01T10:48:12.140Z,20.4
2023-01-01T10:51:12.146Z,20.8
2023-01-01T10:54:12.262Z,21.1
2023-01-01T10:57:12.085Z,21.6
2023-01-01T11:00:12.396Z,21.4
2023-01-01T11:03:12.712Z,21.2
2023-01-01T11:06:12.242Z,20.9
2023-01-01T11:09:12.274Z,20.5
2023-01-01T11:15:12.490Z,20
2023-01-01T11:18:12.203Z,19.6
2023-01-01T11:21:12.243Z,19.1
2023-01-01T11:24:12.233Z,18.8
2023-01-01T11:27:12.136Z,18.8
2023-01-01T11:30:12.300Z,18.8
2023-01-01T11:33:12.237Z,18.9
2023-01-01T11:36:12.179Z,19.3
2023-01-01T11:39:12.230Z,19.4
2023-01-01T11:42:12.342Z,19.1
2023-01-01T11:45:12.193Z,19
2023-01-01T11:48:12.321Z,18.6
2023-01-01T11:51:12.144Z,18.3
2023-01-01T11:54:12.342Z,17.9
2023-01-01T11:57:12.272Z,17.6
2023-01-01T12:00:12.469Z,17.4
2023-01-01T12:03:12.287Z,17.2
2023-01-01T12:06:12.201Z,17.2
2023-01-01T12:09:20.333Z,17.1
2023-01-01T12:12:12.304Z,17.2
2023-01-01T12:15:12.215Z,17.6
2023-01-01T12:18:12.231Z,17.9
2023-01-01T12:21:12.134Z,18.1
2023-01-01T12:24:12.105Z,18.3
2023-01-01T12:27:22.031Z,18.3
2023-01-01T12:30:12.354Z,18.4
2023-01-01T12:33:19.625Z,18.4
2023-01-01T12:36:12.221Z,18.4
2023-01-01T12:39:12.224Z,18.3
2023-01-01T12:42:12.177Z,18
2023-01-01T12:45:12.220Z,17.9
2023-01-01T12:48:12.209Z,17.6
2023-01-01T12:51:16.949Z,17.4
2023-01-01T12:54:12.209Z,17.1
2023-01-01T12:57:12.170Z,17
2023-01-01T13:00:12.332Z,17.1
2023-01-01T13:03:13.144Z,17
2023-01-01T13:06:12.282Z,17
2023-01-01T13:09:12.118Z,16.9
2023-01-01T13:12:12.236Z,16.8
2023-01-01T13:15:12.229Z,16.8
2023-01-01T13:18:12.248Z,16.6
2023-01-01T13:21:12.056Z,16.5
2023-01-01T13:24:12.164Z,16.4
2023-01-01T13:27:21.720Z,16.1
2023-01-01T13:30:12.332Z,16
2023-01-01T13:33:12.136Z,15.8
2023-01-01T13:36:12.204Z,15.8
2023-01-01T13:39:12.253Z,15.6
2023-01-01T13:42:12.178Z,15.5
2023-01-01T13:45:12.178Z,15.4
2023-01-01T13:48:12.189Z,15.3
2023-01-01T13:51:12.264Z,15.1
2023-01-01T13:54:12.334Z,15
2023-01-01T13:57:12.147Z,14.9
2023-01-01T14:00:12.541Z,14.7
2023-01-01T14:03:12.800Z,14.6
2023-01-01T14:06:12.270Z,14.5
2023-01-01T14:09:12.188Z,14.4
2023-01-01T14:12:12.161Z,14.4
2023-01-01T14:15:12.220Z,14.3
2023-01-01T14:18:12.267Z,14.1
2023-01-01T14:21:12.247Z,14
2023-01-01T14:24:12.481Z,13.9
2023-01-01T14:27:12.275Z,13.6
2023-01-01T14:30:12.287Z,13.5
2023-01-01T14:33:12.229Z,13.3
2023-01-01T14:36:12.135Z,13.1
2023-01-01T14:39:12.289Z,13
2023-01-01T14:42:12.279Z,12.9
2023-01-01T14:45:12.301Z,12.9
2023-01-01T14:48:12.275Z,12.9
2023-01-01T14:51:12.233Z,12.9
2023-01-01T14:54:12.265Z,12.9
2023-01-01T14:57:12.358Z,12.9
2023-01-01T15:00:12.464Z,12.9
2023-01-01T15:03:12.815Z,12.8
2023-01-01T15:06:12.268Z,12.8
2023-01-01T15:09:12.153Z,12.6
2023-01-01T15:12:12.447Z,12.6
2023-01-01T15:15:12.147Z,12.6
2023-01-01T15:18:12.172Z,12.6
2023-01-01T15:21:12.091Z,12.5
2023-01-01T15:24:12.035Z,12.5
2023-01-01T15:27:12.156Z,12.5
2023-01-01T15:30:20.588Z,12.5
2023-01-01T15:33:12.104Z,12.4
2023-01-01T15:36:12.153Z,12.4
2023-01-01T15:39:12.124Z,12.2
2023-01-01T15:42:12.223Z,12.2
2023-01-01T15:45:12.198Z,12.2
2023-01-01T15:48:12.178Z,12.4
2023-01-01T15:51:12.183Z,12.4
2023-01-01T15:54:12.142Z,12.4
2023-01-01T15:57:12.320Z,12.5
2023-01-01T16:00:12.272Z,12.5
2023-01-01T16:03:12.640Z,12.5
2023-01-01T16:06:12.137Z,12.5
2023-01-01T16:09:12.245Z,12.5
2023-01-01T16:12:12.348Z,12.5
2023-01-01T16:15:12.077Z,12.5
2023-01-01T16:18:12.198Z,12.6
2023-01-01T16:21:12.169Z,12.6
2023-01-01T16:24:12.151Z,12.8
2023-01-01T16:27:12.138Z,12.8
2023-01-01T16:30:12.251Z,12.8
2023-01-01T16:33:12.090Z,12.8
2023-01-01T16:36:12.100Z,12.9
2023-01-01T16:39:12.180Z,12.9
2023-01-01T16:42:12.070Z,12.9
2023-01-01T16:45:12.112Z,12.9
2023-01-01T16:48:12.040Z,12.8
2023-01-01T16:51:12.145Z,12.8
2023-01-01T16:54:12.295Z,12.8
2023-01-01T16:57:12.103Z,12.8
2023-01-01T17:00:12.298Z,12.6
2023-01-01T17:03:12.480Z,12.6
2023-01-01T17:06:12.089Z,12.5
2023-01-01T17:09:12.057Z,12.5
2023-01-01T17:12:12.283Z,12.4
2023-01-01T17:15:12.259Z,12.2
2023-01-01T17:18:12.132Z,12.1
2023-01-01T17:21:12.059Z,12
2023-01-01T17:24:12.070Z,11.9
2023-01-01T17:27:12.146Z,11.6
2023-01-01T17:30:12.270Z,11.5
2023-01-01T17:33:12.094Z,11.4
2023-01-01T17:36:12.109Z,11.3
2023-01-01T17:39:12.128Z,11.1
2023-01-01T17:42:12.183Z,11.1
2023-01-01T17:45:12.210Z,11.3
2023-01-01T17:48:12.109Z,11.3
2023-01-01T17:51:12.115Z,11.4
2023-01-01T17:54:12.241Z,11.5
2023-01-01T17:57:12.103Z,11.6
2023-01-01T18:00:12.548Z,11.8
2023-01-01T18:03:13.012Z,11.9
2023-01-01T18:06:12.829Z,12
2023-01-01T18:09:12.188Z,12.1
2023-01-01T18:12:12.121Z,12.2
2023-01-01T18:15:12.195Z,12.4
2023-01-01T18:18:12.145Z,12.5
2023-01-01T18:21:12.178Z,12.5
2023-01-01T18:24:12.153Z,12.5
2023-01-01T18:27:12.118Z,12.6
2023-01-01T18:30:12.351Z,12.6
2023-01-01T18:33:12.071Z,12.6
2023-01-01T18:36:12.196Z,12.8
2023-01-01T18:39:12.111Z,12.8
2023-01-01T18:42:12.115Z,12.9
2023-01-01T18:45:12.037Z,12.9
2023-01-01T18:48:12.242Z,12.9
2023-01-01T18:51:12.107Z,12.9
2023-01-01T18:54:12.100Z,13
2023-01-01T18:57:12.115Z,13
2023-01-01T19:00:12.206Z,13
2023-01-01T19:03:12.566Z,13.1
2023-01-01T19:06:12.285Z,13.1
2023-01-01T19:09:12.107Z,13.1
2023-01-01T19:12:12.104Z,13.3
2023-01-01T19:15:12.092Z,13.3
2023-01-01T19:18:12.259Z,13.3
2023-01-01T19:21:12.146Z,13.3
2023-01-01T19:24:12.081Z,13.3
2023-01-01T19:27:12.117Z,13.3
2023-01-01T19:30:12.104Z,13.3
2023-01-01T19:33:12.216Z,13.1
2023-01-01T19:36:12.168Z,13.1
2023-01-01T19:39:12.045Z,13
2023-01-01T19:42:12.055Z,12.9
2023-01-01T19:45:12.056Z,12.8
2023-01-01T19:48:12.081Z,12.6
2023-01-01T19:51:12.144Z,12.5
2023-01-01T19:54:12.204Z,12.4
2023-01-01T19:57:12.110Z,12.4
2023-01-01T20:00:12.199Z,12.2
2023-01-01T20:06:12.141Z,12.1
2023-01-01T20:09:12.091Z,12
2023-01-01T20:12:12.063Z,12
2023-01-01T20:15:12.202Z,11.9
2023-01-01T20:18:12.020Z,11.9
2023-01-01T20:21:12.096Z,11.8
2023-01-01T20:24:12.078Z,11.8
2023-01-01T20:27:12.214Z,11.8
2023-01-01T20:30:12.185Z,11.8
2023-01-01T20:33:12.129Z,11.8
2023-01-01T20:36:12.219Z,11.8
2023-01-01T20:39:12.262Z,11.6
2023-01-01T20:42:12.108Z,11.6
2023-01-01T20:45:12.159Z,11.8
2023-01-01T20:48:19.837Z,11.8
2023-01-01T20:51:12.108Z,11.8
2023-01-01T20:54:12.177Z,11.6
2023-01-01T20:57:12.163Z,11.5
2023-01-01T21:00:12.395Z,11.5
2023-01-01T21:03:12.817Z,11.5
2023-01-01T21:06:12.279Z,11.5
2023-01-01T21:09:12.149Z,11.4
2023-01-01T21:12:12.187Z,11.5
2023-01-01T21:15:12.045Z,11.5
2023-01-01T21:18:12.091Z,11.5
2023-01-01T21:21:12.159Z,11.5
2023-01-01T21:24:12.122Z,11.4
2023-01-01T21:27:12.172Z,11.4
2023-01-01T21:30:12.193Z,11.4
2023-01-01T21:33:12.145Z,11.3
2023-01-01T21:36:12.119Z,11.1
2023-01-01T21:39:12.056Z,11.1
2023-01-01T21:42:12.052Z,11
2023-01-01T21:45:12.239Z,11
2023-01-01T21:48:12.115Z,10.9
2023-01-01T21:51:12.096Z,10.9
2023-01-01T21:54:12.097Z,10.8
2023-01-01T21:57:12.170Z,10.8
2023-01-01T22:00:12.172Z,10.6
2023-01-01T22:03:12.478Z,10.6
2023-01-01T22:06:12.136Z,10.6
2023-01-01T22:09:12.376Z,10.6
2023-01-01T22:12:12.253Z,10.6
2023-01-01T22:15:12.100Z,10.6
2023-01-01T22:18:12.128Z,10.6
2023-01-01T22:21:12.321Z,10.6
2023-01-01T22:24:12.125Z,10.6
2023-01-01T22:27:12.087Z,10.6
2023-01-01T22:30:12.184Z,10.6
2023-01-01T22:33:12.036Z,10.6
2023-01-01T22:36:12.480Z,10.6
2023-01-01T22:39:12.202Z,10.6
2023-01-01T22:42:12.125Z,10.6
2023-01-01T22:45:12.065Z,10.6
2023-01-01T22:48:12.105Z,10.8
2023-01-01T22:51:12.068Z,10.8
2023-01-01T22:54:12.040Z,10.8
2023-01-01T22:57:12.088Z,10.8
2023-01-01T23:00:13.573Z,10.8
2023-01-01T23:03:13.018Z,10.8
2023-01-01T23:06:12.108Z,10.8
2023-01-01T23:09:12.092Z,10.8
2023-01-01T23:12:12.047Z,10.8
2023-01-01T23:15:12.045Z,10.8
2023-01-01T23:18:12.052Z,10.8
2023-01-01T23:21:12.070Z,10.8
2023-01-01T23:24:11.985Z,10.8
2023-01-01T23:27:12.008Z,10.8
2023-01-01T23:30:12.003Z,10.9
2023-01-01T23:33:12.060Z,10.9
2023-01-01T23:36:12.007Z,10.9
2023-01-01T23:39:12.087Z,10.9
2023-01-01T23:42:12.057Z,10.9
2023-01-01T23:45:12.142Z,10.9
2023-01-01T23:48:12.008Z,10.9
2023-01-01T23:51:12.091Z,10.9
2023-01-01T23:54:12.051Z,10.9
2023-01-01T23:57:12.045Z,10.9
